Nor Easter — V7HF2 — position and weather

sailwx.info

Track history (hours):
 
Tides and Currents Weather Stations Pressure Air Temp Water Temp Dewpoint Dewpoint Depression Visibility Wind Speed Wind Dir Waves Ship Positions

Nor Easter

Last reported at 2018-Feb-21 21:17 UTC. Time now 2018-Feb-22 08:40 UTC.
Position N 22°29' E 119°41'.

Length 181 m; draft 8.7 m.

Type: Ship. MMSI: 538002219.

Date/timePositionNaut miles runAvg speedWind from/ knotsBaromVisibWave heightAir tempDewpointWater temp
2018-Feb-21 21:17N 22°29' E 119°41'410.4
2018-Feb-21 20:51N 22°33' E 119°43'410.9
2018-Feb-21 20:28N 22°37' E 119°46'611.5
2018-Feb-21 19:58N 22°42' E 119°49'912.8
2018-Feb-21 19:18N 22°50' E 119°51'413.2
2018-Feb-21 19:00N 22°54' E 119°51'712.9
2018-Feb-21 18:28N 23°01' E 119°52'812.2
2018-Feb-21 17:47N 23°09' E 119°52'511.4
2018-Feb-21 17:23N 23°14' E 119°52'410.9
2018-Feb-21 17:00N 23°18' E 119°52'610.6
2018-Feb-21 16:26N 23°24' E 119°53'410.4
2018-Feb-21 16:00N 23°28' E 119°54'510.6
2018-Feb-21 15:30N 23°34' E 119°54'510.8
2018-Feb-21 15:00N 23°39' E 119°55'  
Track history (hours):
 
Tides and Currents Weather Stations Pressure Air Temp Water Temp Dewpoint Dewpoint Depression Visibility Wind Speed Wind Dir Waves Ship Positions

Nor Easter

Last reported at 2018-Feb-21 21:17 UTC. Time now 2018-Feb-22 08:40 UTC.
Position N 22°29' E 119°41'.

Length 181 m; draft 8.7 m.

Type: Ship. MMSI: 538002219.

Date/timePositionNaut miles runAvg speedWind from/ knotsBaromVisibWave heightAir tempDewpointWater temp
2018-Feb-21 21:17N 22°29' E 119°41'410.4
2018-Feb-21 20:51N 22°33' E 119°43'410.9
2018-Feb-21 20:28N 22°37' E 119°46'611.5
2018-Feb-21 19:58N 22°42' E 119°49'912.8
2018-Feb-21 19:18N 22°50' E 119°51'413.2
2018-Feb-21 19:00N 22°54' E 119°51'712.9
2018-Feb-21 18:28N 23°01' E 119°52'812.2
2018-Feb-21 17:47N 23°09' E 119°52'511.4
2018-Feb-21 17:23N 23°14' E 119°52'410.9
2018-Feb-21 17:00N 23°18' E 119°52'610.6
2018-Feb-21 16:26N 23°24' E 119°53'410.4
2018-Feb-21 16:00N 23°28' E 119°54'510.6
2018-Feb-21 15:30N 23°34' E 119°54'510.8
2018-Feb-21 15:00N 23°39' E 119°55'  

Dump ship's entire track history